Time;durP1;ratioP1;P1;durP2;ratioP2;P2;SDS_P1;SDS_P2;PMS_P1;PMS_P2;Temp;Humidity;BMP_temperature;BMP_pressure;BME280_temperature;BME280_humidity;BME280_pressure;Samples;Min_cycle;Max_cycle;Signal;HPM_P1;HPM_P2
2022/03/19 00:01:02;;;;;;;69.03;32.25;;;;;;;-1.95;55.81;102788.74;2155542;80;21002;-83
2022/03/19 00:04:03;;;;;;;76.67;34.75;;;;;;;-1.89;55.52;102791.25;2150302;80;21033;-82
2022/03/19 00:07:05;;;;;;;68.17;30.50;;;;;;;-1.88;55.41;102787.79;2169043;81;21282;-82
2022/03/19 00:10:08;;;;;;;66.90;31.10;;;;;;;-1.95;55.40;102791.34;2161470;81;21581;-84
2022/03/19 00:13:10;;;;;;;70.47;32.60;;;;;;;-1.98;55.65;102790.09;2145421;81;20974;-81
2022/03/19 00:16:11;;;;;;;72.35;32.60;;;;;;;-1.99;55.99;102786.22;2160265;81;21014;-82
2022/03/19 00:19:12;;;;;;;;;;;;;;;-1.95;55.98;102779.63;2169718;81;21534;-82
2022/03/19 00:22:13;;;;;;;69.22;29.55;;;;;;;-1.92;56.09;102783.48;2150648;81;20559;-83
2022/03/19 00:25:14;;;;;;;67.05;30.72;;;;;;;-1.94;55.90;102782.67;2130344;80;21341;-82
2022/03/19 00:28:18;;;;;;;66.87;32.17;;;;;;;-1.89;55.85;102779.98;2154807;81;21012;-82
2022/03/19 00:31:18;;;;;;;71.72;33.80;;;;;;;-1.92;55.90;102782.19;2164559;81;21517;-82
2022/03/19 00:34:20;;;;;;;75.87;33.08;;;;;;;-1.98;55.82;102780.98;2162673;81;21001;-83
2022/03/19 00:37:21;;;;;;;71.07;33.15;;;;;;;-1.99;55.91;102784.47;2154385;80;21003;-83
2022/03/19 00:40:24;;;;;;;80.17;33.30;;;;;;;-2.04;56.28;102788.43;2158235;81;21002;-83
2022/03/19 00:43:25;;;;;;;81.90;35.05;;;;;;;-2.10;56.63;102788.96;2155110;81;20995;-85
2022/03/19 00:46:26;;;;;;;;;;;;;;;-2.13;56.95;102793.77;2163766;81;21057;-81
2022/03/19 00:49:27;;;;;;;78.33;34.08;;;;;;;-2.23;57.26;102790.84;2160944;81;20122;-85
2022/03/19 00:52:28;;;;;;;70.87;30.48;;;;;;;-2.37;57.33;102780.61;2152952;81;21014;-82
2022/03/19 00:55:30;;;;;;;70.57;32.55;;;;;;;-2.36;57.62;102784.09;2161549;80;20994;-85
2022/03/19 00:58:31;;;;;;;75.45;33.18;;;;;;;-2.36;57.73;102781.50;2151294;80;21019;-83
2022/03/19 01:01:34;;;;;;;76.42;33.08;;;;;;;-2.34;57.83;102783.61;2161659;81;21494;-83
2022/03/19 01:04:36;;;;;;;73.33;33.30;;;;;;;-2.28;58.00;102777.92;2161563;80;21055;-80
2022/03/19 01:07:49;;;;;;;;;;;;;;;-2.22;57.76;102773.08;2147814;81;20962;-83
2022/03/19 01:10:49;;;;;;;69.30;30.37;;;;;;;-2.14;57.80;102772.54;2138857;81;20133;-82
2022/03/19 01:13:51;;;;;;;;;;;;;;;-2.12;57.61;102764.70;2136021;82;21440;-83
2022/03/19 01:16:52;;;;;;;;;;;;;;;-2.07;57.63;102762.91;2136960;80;20118;-84
2022/03/19 01:19:53;;;;;;;73.02;32.17;;;;;;;-2.05;57.81;102764.60;2139504;82;20157;-80
2022/03/19 01:22:53;;;;;;;;;;;;;;;-2.02;57.71;102761.55;2139951;82;21009;-82
2022/03/19 01:25:54;;;;;;;67.27;31.75;;;;;;;-1.97;57.67;102763.20;2137101;82;20211;-84
2022/03/19 01:28:56;;;;;;;71.60;34.50;;;;;;;-1.97;57.44;102758.00;2143773;82;21511;-85
2022/03/19 01:31:57;;;;;;;83.33;37.17;;;;;;;-1.99;57.44;102760.20;2135287;80;20985;-86
2022/03/19 01:34:58;;;;;;;72.40;33.65;;;;;;;-1.95;58.23;102767.07;2136155;82;21088;-81
2022/03/19 01:37:59;;;;;;;;;;;;;;;-1.86;57.76;102760.42;2141225;81;21047;-84
2022/03/19 01:41:00;;;;;;;64.45;28.55;;;;;;;-1.83;57.92;102765.16;2135102;82;20125;-83
2022/03/19 01:44:01;;;;;;;74.27;33.85;;;;;;;-1.82;58.15;102756.46;2135204;82;20970;-80
2022/03/19 01:47:10;;;;;;;70.30;33.70;;;;;;;-1.75;57.80;102764.17;2137848;82;20955;-81
2022/03/19 01:50:12;;;;;;;71.50;34.35;;;;;;;-1.76;57.61;102765.06;2134204;80;21011;-81
2022/03/19 01:53:13;;;;;;;72.20;33.88;;;;;;;-1.75;57.66;102763.72;2139587;81;21054;-83
2022/03/19 01:56:15;;;;;;;69.85;33.08;;;;;;;-1.72;57.82;102758.92;2141720;80;20982;-81
2022/03/19 01:59:16;;;;;;;80.12;35.20;;;;;;;-1.75;57.78;102755.06;2140441;81;21077;-80
2022/03/19 02:02:19;;;;;;;77.08;33.23;;;;;;;-1.69;57.94;102754.97;2138998;82;20976;-82
2022/03/19 02:05:23;;;;;;;74.45;35.13;;;;;;;-1.62;58.01;102757.91;2134363;82;21006;-82
2022/03/19 02:08:24;;;;;;;83.58;36.05;;;;;;;-1.59;57.97;102753.50;2142593;81;21022;-83
2022/03/19 02:11:26;;;;;;;84.13;36.33;;;;;;;-1.52;57.81;102742.56;2147862;81;21037;-80
2022/03/19 02:14:28;;;;;;;72.12;33.20;;;;;;;-1.49;57.78;102739.91;2148408;81;21026;-82
2022/03/19 02:17:29;;;;;;;71.02;34.20;;;;;;;-1.43;58.11;102740.25;2146596;81;21030;-80
2022/03/19 02:20:37;;;;;;;72.47;34.13;;;;;;;-1.37;58.26;102743.59;2153127;81;21026;-83
2022/03/19 02:26:58;;;;;;;72.22;34.50;;;;;;;-1.28;58.22;102734.77;2142242;81;21061;-81
2022/03/19 02:30:01;;;;;;;74.90;36.85;;;;;;;-1.22;58.13;102737.70;2147279;81;21066;-84
2022/03/19 02:33:02;;;;;;;81.90;36.28;;;;;;;-1.23;58.15;102738.59;2143402;81;20982;-80
2022/03/19 02:36:04;;;;;;;71.35;34.00;;;;;;;-1.22;58.27;102736.40;2153250;81;21008;-82
2022/03/19 02:39:18;;;;;;;75.25;35.40;;;;;;;-1.23;58.49;102738.16;2157421;81;21026;-84
2022/03/19 02:42:20;;;;;;;74.97;35.05;;;;;;;-1.21;58.53;102733.78;2130967;81;21335;-83
2022/03/19 02:45:23;;;;;;;80.40;35.88;;;;;;;-1.16;58.41;102733.68;2142536;81;20989;-78
2022/03/19 02:48:24;;;;;;;72.97;35.35;;;;;;;-1.19;58.05;102725.92;2139297;81;21503;-83
2022/03/19 02:51:25;;;;;;;;;;;;;;;-1.26;58.14;102725.19;2134859;81;21472;-80
2022/03/19 02:54:31;;;;;;;84.30;36.70;;;;;;;-1.28;58.07;102724.79;2147037;81;20172;-80
2022/03/19 02:57:32;;;;;;;84.17;35.70;;;;;;;-1.48;58.01;102728.59;2139612;81;21022;-83
2022/03/19 03:00:33;;;;;;;;;;;;;;;-1.49;58.40;102728.19;2147147;81;21084;-85
2022/03/19 03:03:34;;;;;;;69.07;34.65;;;;;;;-1.42;58.70;102726.33;2141732;81;20143;-83
2022/03/19 03:06:38;;;;;;;;;;;;;;;-1.35;58.80;102727.95;2150328;81;21037;-83
2022/03/19 03:09:39;;;;;;;71.92;33.58;;;;;;;-1.30;58.79;102722.65;2132426;82;20180;-82
2022/03/19 03:12:40;;;;;;;65.95;34.35;;;;;;;-1.26;58.81;102724.33;2133604;81;20994;-84
2022/03/19 03:15:42;;;;;;;70.05;34.15;;;;;;;-1.24;58.77;102722.53;2136101;82;21046;-81
2022/03/19 03:18:43;;;;;;;72.55;33.55;;;;;;;-1.20;58.83;102728.13;2132407;82;21024;-79
2022/03/19 03:21:46;;;;;;;69.17;33.38;;;;;;;-1.17;58.78;102726.31;2129700;82;21004;-82
2022/03/19 03:24:47;;;;;;;77.27;34.75;;;;;;;-1.15;58.95;102727.60;2133360;82;21028;-82
2022/03/19 03:27:48;;;;;;;73.35;34.98;;;;;;;-1.08;58.92;102734.41;2131387;82;21460;-85
2022/03/19 03:30:49;;;;;;;77.22;35.28;;;;;;;-1.07;58.81;102737.45;2133236;81;21008;-81
2022/03/19 03:33:51;;;;;;;84.75;36.40;;;;;;;-1.06;58.87;102729.18;2130977;82;21005;-81
2022/03/19 03:36:52;;;;;;;72.95;36.42;;;;;;;-1.05;58.78;102730.44;2136117;82;21284;-80
2022/03/19 03:39:53;;;;;;;81.15;36.58;;;;;;;-1.02;58.73;102728.22;2133901;81;21548;-80
2022/03/19 03:42:55;;;;;;;84.22;36.33;;;;;;;-1.04;58.69;102727.38;2140109;82;21039;-86
2022/03/19 03:45:56;;;;;;;74.82;33.13;;;;;;;-1.09;58.74;102719.67;2130634;82;20991;-78
2022/03/19 03:48:57;;;;;;;71.02;33.78;;;;;;;-1.09;58.94;102717.06;2132808;81;21543;-83
2022/03/19 03:51:58;;;;;;;76.92;36.50;;;;;;;-1.13;59.04;102721.90;2133977;82;21037;-82
2022/03/19 03:55:00;;;;;;;68.07;33.95;;;;;;;-1.10;59.09;102724.44;2129113;81;21051;-85
2022/03/19 03:58:03;;;;;;;71.20;35.13;;;;;;;-1.12;59.20;102735.36;2140349;82;21090;-79
2022/03/19 04:01:04;;;;;;;78.50;34.48;;;;;;;-1.16;59.25;102725.86;2131284;82;21513;-82
2022/03/19 04:04:05;;;;;;;74.85;37.25;;;;;;;-1.14;59.32;102721.49;2134402;81;21299;-83
2022/03/19 04:07:06;;;;;;;;;;;;;;;-1.10;59.31;102718.37;2138112;81;21031;-82
2022/03/19 04:10:08;;;;;;;81.22;35.85;;;;;;;-1.07;59.43;102709.20;2145948;81;20111;-83
2022/03/19 04:13:09;;;;;;;77.35;34.55;;;;;;;-1.05;59.33;102719.16;2138994;81;21503;-81
2022/03/19 04:16:11;;;;;;;78.45;36.48;;;;;;;-1.06;59.27;102720.91;2141091;80;21021;-80
2022/03/19 04:19:12;;;;;;;81.75;37.15;;;;;;;-1.09;59.29;102718.37;2143576;81;20982;-83
2022/03/19 04:22:13;;;;;;;69.92;34.85;;;;;;;-1.12;59.41;102714.52;2141464;81;21002;-82
2022/03/19 04:25:20;;;;;;;;;;;;;;;-1.13;59.52;102721.90;2150309;81;21078;-83
2022/03/19 04:28:21;;;;;;;71.82;35.55;;;;;;;-1.11;59.49;102708.41;2149653;81;20183;-84
2022/03/19 04:31:22;;;;;;;78.70;36.60;;;;;;;-1.19;59.37;102718.10;2145010;80;21057;-83
2022/03/19 04:34:24;;;;;;;82.97;39.03;;;;;;;-1.19;59.51;102720.70;2146487;81;21015;-84
2022/03/19 04:37:26;;;;;;;78.55;38.00;;;;;;;-1.18;59.48;102710.27;2145127;81;21057;-81
2022/03/19 04:40:28;;;;;;;74.47;36.68;;;;;;;-1.16;59.61;102706.32;2142629;81;20989;-84
2022/03/19 04:43:29;;;;;;;79.12;37.58;;;;;;;-1.13;59.95;102707.56;2149230;81;21048;-83
2022/03/19 04:46:29;;;;;;;;;;;;;;;-1.13;60.17;102708.87;2148254;81;21000;-81
2022/03/19 04:49:30;;;;;;;77.80;38.90;;;;;;;-1.12;60.23;102714.52;2143876;81;20147;-81
2022/03/19 04:52:32;;;;;;;;;;;;;;;-1.12;60.03;102708.00;2148654;81;20999;-83
2022/03/19 04:55:37;;;;;;;71.22;34.67;;;;;;;-1.21;59.73;102713.36;2146504;81;20127;-85
2022/03/19 04:58:39;;;;;;;72.53;35.43;;;;;;;-1.24;60.09;102711.70;2142285;80;21591;-86
2022/03/19 05:01:41;;;;;;;78.87;34.00;;;;;;;-1.20;60.00;102717.70;2149633;81;21526;-84
2022/03/19 05:04:42;;;;;;;77.12;35.85;;;;;;;-1.26;60.05;102725.63;2148950;81;21116;-84
2022/03/19 05:07:43;;;;;;;75.60;35.68;;;;;;;-1.25;60.18;102706.50;2138303;81;21061;-84
2022/03/19 05:14:04;;;;;;;74.40;36.13;;;;;;;-1.14;60.53;102717.13;2111482;82;21108;-83
2022/03/19 05:17:07;;;;;;;74.07;35.73;;;;;;;-1.03;60.55;102720.00;2117151;82;21592;-85
2022/03/19 05:20:10;;;;;;;80.25;36.33;;;;;;;-0.93;60.56;102713.28;2114927;82;21038;-84
2022/03/19 05:23:11;;;;;;;71.90;35.73;;;;;;;-0.85;60.52;102718.78;2113934;82;20998;-83
2022/03/19 05:26:12;;;;;;;66.22;33.42;;;;;;;-0.79;60.44;102717.34;2107153;82;21038;-83
2022/03/19 05:29:13;;;;;;;72.97;33.67;;;;;;;-0.78;60.21;102721.69;2110130;82;21061;-83
2022/03/19 05:32:16;;;;;;;;;;;;;;;-0.71;60.22;102724.58;2107606;82;21007;-83
2022/03/19 05:35:18;;;;;;;57.08;28.17;;;;;;;-0.65;59.78;102721.84;2118622;82;20123;-80
2022/03/19 05:38:20;;;;;;;56.13;26.33;;;;;;;-0.62;59.49;102718.31;2113064;82;20994;-82
2022/03/19 05:41:20;;;;;;;57.70;29.72;;;;;;;-0.49;59.38;102725.00;2116965;82;20990;-81
2022/03/19 05:44:22;;;;;;;62.03;30.85;;;;;;;-0.30;59.52;102724.17;2115967;82;21074;-83
2022/03/19 05:47:24;;;;;;;67.75;30.55;;;;;;;-0.18;59.49;102719.98;2114524;82;20994;-82
2022/03/19 05:50:25;;;;;;;59.75;28.62;;;;;;;-0.09;59.16;102726.30;2111113;82;20987;-82
2022/03/19 05:53:26;;;;;;;99.28;42.95;;;;;;;0.03;58.95;102733.44;2111186;82;21001;-85
2022/03/19 05:56:27;;;;;;;65.00;30.65;;;;;;;0.07;58.48;102736.41;2116525;82;21012;-83
2022/03/19 05:59:29;;;;;;;;;;;;;;;0.11;58.48;102732.81;2113974;82;21538;-83
2022/03/19 06:02:30;;;;;;;70.17;29.72;;;;;;;0.18;58.26;102736.56;2111155;82;20147;-84
2022/03/19 06:05:31;;;;;;;56.85;29.25;;;;;;;0.29;58.39;102740.69;2075469;85;21002;-83
2022/03/19 06:08:32;;;;;;;58.58;29.42;;;;;;;0.42;58.11;102735.55;2115083;82;21023;-85
2022/03/19 06:11:33;;;;;;;57.85;28.02;;;;;;;0.50;58.16;102732.77;2110846;82;21065;-81
2022/03/19 06:14:35;;;;;;;64.12;32.10;;;;;;;0.58;57.76;102742.58;2116289;82;21014;-83
2022/03/19 06:17:36;;;;;;;73.22;34.13;;;;;;;0.59;57.78;102741.67;2113344;82;20986;-84
2022/03/19 06:20:38;;;;;;;65.50;31.37;;;;;;;0.59;57.21;102754.31;2112839;82;21430;-82
2022/03/19 06:23:39;;;;;;;71.57;35.38;;;;;;;0.59;57.31;102754.31;2116061;82;21030;-80
2022/03/19 06:26:40;;;;;;;66.77;31.90;;;;;;;0.71;57.18;102754.45;2113561;82;21077;-82
2022/03/19 06:29:42;;;;;;;67.82;33.58;;;;;;;0.86;57.16;102767.56;2109576;82;21445;-79
2022/03/19 06:32:43;;;;;;;68.22;33.48;;;;;;;1.23;56.74;102756.13;2116765;82;21053;-81
2022/03/19 06:39:05;;;;;;;70.22;33.67;;;;;;;1.95;55.37;102760.59;2115007;82;21350;-84
2022/03/19 06:42:07;;;;;;;68.55;33.30;;;;;;;2.12;55.20;102758.77;2111644;82;21027;-82
2022/03/19 06:45:08;;;;;;;64.50;32.50;;;;;;;2.20;55.05;102762.86;2114194;82;21589;-84
2022/03/19 06:48:10;;;;;;;68.45;34.00;;;;;;;2.05;54.11;102763.32;2109756;82;21022;-83
2022/03/19 06:51:19;;;;;;;69.05;34.05;;;;;;;1.84;54.04;102763.99;2112643;82;21545;-85
2022/03/19 06:54:20;;;;;;;66.15;32.80;;;;;;;1.66;53.78;102762.75;2113295;82;21045;-84
2022/03/19 06:57:22;;;;;;;68.70;33.23;;;;;;;1.41;54.13;102764.78;2117224;82;21024;-81
2022/03/19 07:00:23;;;;;;;75.67;36.13;;;;;;;1.26;54.28;102767.35;2109769;82;21593;-83
2022/03/19 07:03:25;;;;;;;64.77;34.00;;;;;;;1.30;54.11;102764.23;2108810;82;21018;-81
2022/03/19 07:06:26;;;;;;;69.35;36.42;;;;;;;1.57;53.27;102769.97;2116864;82;21026;-82
2022/03/19 07:09:27;;;;;;;71.17;36.15;;;;;;;2.06;54.10;102770.30;2136711;81;21029;-81
2022/03/19 07:12:29;;;;;;;67.00;34.88;;;;;;;2.33;52.88;102773.80;2137579;81;21059;-79
2022/03/19 07:15:30;;;;;;;66.90;33.40;;;;;;;2.23;52.09;102774.55;2147164;81;21016;-81
2022/03/19 07:18:31;;;;;;;72.40;37.10;;;;;;;2.30;51.77;102770.42;2140652;81;20966;-79
2022/03/19 07:21:32;;;;;;;59.98;32.28;;;;;;;2.63;52.26;102777.66;2145140;81;21644;-80
2022/03/19 07:24:35;;;;;;;63.08;33.80;;;;;;;2.94;51.13;102774.01;2146021;81;21419;-82
2022/03/19 07:27:36;;;;;;;62.35;31.70;;;;;;;2.96;51.64;102775.67;2146494;81;21017;-81
2022/03/19 07:30:39;;;;;;;59.35;32.17;;;;;;;3.19;49.31;102780.58;2154217;81;21046;-80
2022/03/19 07:33:40;;;;;;;56.70;29.40;;;;;;;3.38;49.59;102782.95;2142564;81;21012;-83
2022/03/19 07:36:43;;;;;;;61.05;32.53;;;;;;;3.66;47.28;102785.86;2143562;80;21037;-80
2022/03/19 07:39:44;;;;;;;56.88;30.97;;;;;;;3.89;48.20;102785.87;2148919;81;21061;-80
2022/03/19 07:42:46;;;;;;;59.33;32.33;;;;;;;4.24;47.10;102784.48;2144669;81;21103;-82
2022/03/19 07:45:49;;;;;;;60.15;32.58;;;;;;;4.21;46.44;102775.87;2145207;81;21086;-84
2022/03/19 07:48:50;;;;;;;67.75;34.23;;;;;;;4.16;46.48;102784.39;2149176;81;21509;-82
2022/03/19 07:51:55;;;;;;;63.02;31.62;;;;;;;4.32;47.15;102796.02;2147264;81;20990;-83
2022/03/19 07:54:55;;;;;;;53.33;30.82;;;;;;;4.71;45.77;102799.27;2149841;81;21073;-83
2022/03/19 07:57:58;;;;;;;51.53;30.20;;;;;;;5.01;46.73;102788.36;2141101;81;21024;-84
2022/03/19 08:00:59;;;;;;;61.90;30.27;;;;;;;5.30;46.23;102802.45;2147229;81;21009;-84
2022/03/19 08:04:01;;;;;;;54.75;29.40;;;;;;;5.48;46.14;102797.29;2140146;81;21514;-83
2022/03/19 08:07:03;;;;;;;53.98;29.12;;;;;;;5.69;43.10;102807.31;2145348;81;21496;-84
2022/03/19 08:10:09;;;;;;;57.73;29.75;;;;;;;5.55;43.97;102802.22;2135903;81;21563;-83
2022/03/19 08:13:10;;;;;;;58.13;29.30;;;;;;;5.58;42.65;102807.82;2141567;82;21588;-85
2022/03/19 08:16:12;;;;;;;49.25;28.80;;;;;;;5.79;43.53;102805.51;2133624;82;20962;-83
2022/03/19 08:19:18;;;;;;;54.33;28.85;;;;;;;5.95;42.71;102802.22;2135547;82;21069;-84
2022/03/19 08:22:19;;;;;;;50.12;28.87;;;;;;;6.13;42.68;102810.56;2133620;82;21094;-81
2022/03/19 08:25:21;;;;;;;47.88;27.50;;;;;;;6.27;42.47;102802.85;2135133;82;21013;-85
2022/03/19 08:28:22;;;;;;;54.33;30.62;;;;;;;6.21;40.62;102811.53;2137825;80;21489;-85
2022/03/19 08:31:24;;;;;;;49.98;27.32;;;;;;;6.21;41.91;102803.16;2137289;82;20970;-84
2022/03/19 08:34:25;;;;;;;52.15;26.27;;;;;;;6.60;40.07;102805.27;2144102;81;21025;-83
2022/03/19 08:37:26;;;;;;;55.03;31.62;;;;;;;6.67;39.79;102811.50;2132305;82;21498;-85
2022/03/19 08:40:28;;;;;;;50.23;28.45;;;;;;;6.56;41.06;102809.84;2133069;82;20994;-83
2022/03/19 08:43:29;;;;;;;46.95;27.20;;;;;;;6.66;39.93;102800.53;2137802;81;21006;-83
2022/03/19 08:46:31;;;;;;;43.30;26.62;;;;;;;7.09;41.07;102805.44;2135224;82;21046;-84
2022/03/19 08:49:33;;;;;;;44.90;24.67;;;;;;;7.29;39.36;102807.92;2133598;82;21067;-85
2022/03/19 08:52:36;;;;;;;41.25;24.82;;;;;;;7.41;39.56;102802.45;2132647;82;21069;-85
2022/03/19 08:55:37;;;;;;;37.78;22.42;;;;;;;7.52;38.24;102799.26;2136906;80;21026;-83
2022/03/19 08:58:38;;;;;;;33.92;18.80;;;;;;;7.52;37.87;102806.71;2135647;82;20998;-84
2022/03/19 09:01:41;;;;;;;31.42;18.48;;;;;;;7.54;35.39;102801.33;2134059;82;21029;-85
2022/03/19 09:04:42;;;;;;;32.63;19.32;;;;;;;7.59;35.96;102805.43;2109017;82;21638;-88
2022/03/19 09:07:43;;;;;;;39.78;23.65;;;;;;;7.73;36.24;102794.59;2137837;80;21039;-85
2022/03/19 09:10:44;;;;;;;38.53;20.65;;;;;;;7.76;35.81;102810.28;2141789;80;21015;-86
2022/03/19 09:13:48;;;;;;;25.88;15.90;;;;;;;7.82;36.27;102792.29;2119239;82;21089;-84
2022/03/19 09:16:50;;;;;;;29.52;16.77;;;;;;;7.91;33.43;102800.66;2145062;80;21497;-82
2022/03/19 09:19:51;;;;;;;32.00;18.75;;;;;;;7.79;32.36;102790.29;2145816;80;21034;-84
2022/03/19 09:22:52;;;;;;;27.20;17.70;;;;;;;7.85;34.98;102785.55;2144318;82;21699;-82
2022/03/19 09:25:54;;;;;;;32.65;19.40;;;;;;;8.18;33.08;102789.88;2146938;80;21534;-82
2022/03/19 09:28:56;;;;;;;28.38;17.82;;;;;;;8.11;33.33;102788.98;2145857;80;20996;-84
2022/03/19 09:31:57;;;;;;;29.37;18.20;;;;;;;8.16;32.63;102779.00;2145963;80;20991;-86
2022/03/19 09:34:58;;;;;;;35.23;19.45;;;;;;;8.01;32.77;102786.01;2146795;80;21465;-86
2022/03/19 09:38:00;;;;;;;34.10;16.02;;;;;;;7.97;32.79;102781.37;2148034;80;21017;-83
2022/03/19 09:41:01;;;;;;;22.02;13.98;;;;;;;8.06;31.92;102772.07;2147592;80;21017;-80
2022/03/19 09:44:02;;;;;;;24.43;14.47;;;;;;;7.99;30.82;102782.11;2145623;82;21876;-81
2022/03/19 09:47:06;;;;;;;21.40;12.43;;;;;;;8.07;31.39;102775.93;2149049;80;21022;-81
2022/03/19 09:50:08;;;;;;;21.37;13.43;;;;;;;8.18;30.05;102793.00;2111426;82;21035;-81
2022/03/19 09:53:10;;;;;;;20.55;11.35;;;;;;;8.06;29.28;102787.94;2142101;82;20965;-82
2022/03/19 09:56:11;;;;;;;22.73;12.90;;;;;;;7.96;28.91;102783.61;2147181;82;21060;-83
2022/03/19 09:59:13;;;;;;;22.95;12.82;;;;;;;7.96;29.35;102790.69;2149063;80;21006;-82
2022/03/19 10:02:15;;;;;;;22.73;13.03;;;;;;;8.01;28.95;102788.18;2149683;80;21005;-80
2022/03/19 10:08:36;;;;;;;24.20;13.38;;;;;;;8.19;29.27;102774.86;2143284;80;21125;-82
2022/03/19 10:11:37;;;;;;;26.57;12.37;;;;;;;8.33;30.19;102777.57;2122155;82;21002;-82
2022/03/19 10:14:38;;;;;;;22.90;14.20;;;;;;;8.43;29.65;102799.97;2124038;82;21068;-83
2022/03/19 10:17:40;;;;;;;24.20;14.20;;;;;;;8.39;30.64;102776.41;2122809;82;20982;-84
2022/03/19 10:20:42;;;;;;;21.95;14.87;;;;;;;8.43;29.46;102792.03;2121431;82;21048;-85
2022/03/19 10:23:43;;;;;;;26.50;15.48;;;;;;;8.36;30.14;102782.69;2111023;82;21023;-80
2022/03/19 10:26:48;;;;;;;31.48;17.73;;;;;;;8.33;29.13;102773.61;2120299;82;21006;-83
2022/03/19 10:30:07;;;;;;;29.55;16.45;;;;;;;8.21;30.63;102793.67;2122815;82;20994;-84
2022/03/19 10:33:10;;;;;;;24.32;14.83;;;;;;;8.18;30.10;102781.95;2120925;82;21565;-86
2022/03/19 10:36:12;;;;;;;26.02;14.30;;;;;;;8.45;30.13;102784.86;2121548;82;21413;-79
2022/03/19 10:39:25;;;;;;;23.67;15.38;;;;;;;8.32;28.74;102794.40;2122597;82;21049;-82
2022/03/19 10:42:30;;;;;;;33.15;18.90;;;;;;;8.11;29.32;102771.34;2118120;82;21009;-81
2022/03/19 10:45:31;;;;;;;26.33;14.23;;;;;;;8.07;29.81;102781.22;2121846;82;20975;-79
2022/03/19 10:48:33;;;;;;;19.62;13.70;;;;;;;8.37;30.23;102776.95;2115909;82;21047;-84
2022/03/19 10:51:36;;;;;;;29.72;15.35;;;;;;;8.53;29.73;102768.08;2120744;82;21001;-81
2022/03/19 10:54:38;;;;;;;24.60;14.98;;;;;;;8.47;29.03;102772.37;2120911;82;21514;-81
2022/03/19 10:57:39;;;;;;;34.83;18.30;;;;;;;8.35;29.70;102766.44;2124311;82;21006;-80
2022/03/19 11:00:41;;;;;;;23.15;14.60;;;;;;;8.53;30.66;102773.81;2116764;82;21030;-84
2022/03/19 11:03:45;;;;;;;23.35;14.23;;;;;;;8.84;29.69;102759.66;2120268;82;21026;-81
2022/03/19 11:06:47;;;;;;;21.70;14.20;;;;;;;8.73;28.30;102743.09;2111275;82;21017;-82
2022/03/19 11:09:52;;;;;;;24.47;12.10;;;;;;;8.48;28.27;102764.84;2115744;82;21068;-85
2022/03/19 11:12:56;;;;;;;24.05;10.60;;;;;;;8.36;28.68;102760.20;2117153;82;21018;-83
2022/03/19 11:16:00;;;;;;;25.10;14.50;;;;;;;8.30;28.01;102765.84;2115984;82;21457;-83
2022/03/19 11:19:04;;;;;;;26.52;14.50;;;;;;;8.24;29.25;102755.63;2108901;82;21103;-82
2022/03/19 11:22:08;;;;;;;25.50;16.05;;;;;;;8.34;29.15;102756.81;2110577;82;21549;-81
2022/03/19 11:25:31;;;;;;;26.82;14.53;;;;;;;8.35;29.91;102745.75;2105422;82;21021;-83
2022/03/19 11:28:34;;;;;;;28.42;16.67;;;;;;;8.47;29.29;102744.59;2110257;82;21094;-85
2022/03/19 11:31:36;;;;;;;24.12;14.38;;;;;;;8.56;29.84;102733.97;2102213;82;21024;-81
2022/03/19 11:34:48;;;;;;;25.75;16.05;;;;;;;8.65;29.53;102732.58;2111080;82;20962;-83
2022/03/19 11:38:11;;;;;;;22.62;14.23;;;;;;;8.75;29.56;102747.80;2119635;82;20993;-82
2022/03/19 11:41:22;;;;;;;27.07;16.25;;;;;;;8.65;28.77;102744.00;2114758;82;21011;-85
2022/03/19 11:44:25;;;;;;;29.57;16.42;;;;;;;8.56;29.27;102733.97;2116600;82;21083;-83
2022/03/19 11:47:34;;;;;;;28.70;16.05;;;;;;;8.56;29.15;102727.35;2114509;82;21550;-85
2022/03/19 11:50:36;;;;;;;30.50;16.82;;;;;;;8.64;29.33;102716.30;2110870;82;21001;-83
2022/03/19 11:53:53;;;;;;;29.80;17.10;;;;;;;8.74;29.64;102715.66;2112460;82;20979;-84
2022/03/19 11:57:05;;;;;;;26.62;16.62;;;;;;;8.79;29.41;102711.42;2110032;82;22272;-82
2022/03/19 12:00:09;;;;;;;23.75;15.72;;;;;;;8.67;29.15;102711.69;2113475;82;21367;-83
2022/03/19 12:03:19;;;;;;;29.45;17.73;;;;;;;8.74;29.39;102716.98;2112383;82;21038;-82
2022/03/19 12:06:32;;;;;;;29.07;15.65;;;;;;;8.77;30.01;102704.52;2103825;82;21046;-81
2022/03/19 12:09:44;;;;;;;26.87;15.65;;;;;;;8.95;29.17;102697.65;2120947;82;21041;-84
2022/03/19 12:12:48;;;;;;;25.30;15.65;;;;;;;9.03;29.10;102702.45;2136793;82;21029;-83
2022/03/19 12:15:50;;;;;;;29.20;18.02;;;;;;;8.89;28.63;102691.37;2141217;82;21029;-84
2022/03/19 12:18:53;;;;;;;24.80;16.15;;;;;;;8.90;29.20;102688.28;2134704;82;20986;-85
2022/03/19 12:21:54;;;;;;;24.23;14.50;;;;;;;8.93;29.23;102705.30;2134469;82;21038;-85
2022/03/19 12:25:16;;;;;;;27.42;15.72;;;;;;;8.83;28.40;102712.93;2137693;80;21525;-80
2022/03/19 12:28:18;;;;;;;27.07;16.23;;;;;;;8.84;28.73;102685.98;2140869;80;21113;-85
2022/03/19 12:31:19;;;;;;;25.27;14.80;;;;;;;8.88;28.46;102710.86;2132849;80;21532;-85
2022/03/19 12:34:26;;;;;;;30.50;15.30;;;;;;;8.91;28.12;102703.21;2139502;82;20992;-85
2022/03/19 12:37:28;;;;;;;24.35;13.22;;;;;;;8.94;28.50;102709.64;2140446;82;21531;-83
2022/03/19 12:41:23;;;;;;;23.18;13.40;;;;;;;8.90;27.84;102691.77;2137111;82;21666;-83
2022/03/19 12:43:38;;;;;;;19.57;12.53;;;;;;;9.03;28.11;102689.69;2132317;81;21489;-82
2022/03/19 12:46:39;;;;;;;22.75;14.53;;;;;;;9.01;26.82;102693.77;2138348;82;20973;-81
2022/03/19 12:49:52;;;;;;;17.02;11.90;;;;;;;8.97;27.58;102690.44;2138844;82;21484;-84
2022/03/19 12:52:53;;;;;;;22.40;12.47;;;;;;;8.93;27.02;102688.94;2133622;81;21071;-84
2022/03/19 12:56:21;;;;;;;18.92;10.03;;;;;;;8.88;26.12;102696.78;2137107;81;21029;-82
2022/03/19 12:59:25;;;;;;;18.67;11.38;;;;;;;8.83;25.87;102685.61;2135193;82;21587;-81
2022/03/19 13:02:27;;;;;;;17.95;10.35;;;;;;;8.77;25.89;102690.80;2129180;82;21055;-83
2022/03/19 13:05:28;;;;;;;17.67;11.10;;;;;;;8.79;25.33;102693.38;2134108;82;20991;-85
2022/03/19 13:08:50;;;;;;;19.95;12.05;;;;;;;8.77;26.14;102697.42;2135354;81;21046;-82
2022/03/19 13:11:51;;;;;;;21.70;12.15;;;;;;;8.85;25.96;102684.58;2111519;82;21054;-86
2022/03/19 13:14:56;;;;;;;18.40;11.40;;;;;;;8.82;25.89;102691.86;2107865;82;21019;-83
2022/03/19 13:17:58;;;;;;;21.48;10.82;;;;;;;8.87;25.34;102680.05;2115421;82;21498;-85
2022/03/19 13:21:11;;;;;;;18.73;11.55;;;;;;;8.88;25.50;102665.85;2113805;82;20974;-84
2022/03/19 13:24:13;;;;;;;22.02;12.73;;;;;;;8.88;26.36;102680.89;2112196;82;21017;-85
2022/03/19 13:27:15;;;;;;;20.82;12.63;;;;;;;8.86;25.31;102678.33;2114286;82;21018;-85
2022/03/19 13:30:16;;;;;;;26.50;14.65;;;;;;;8.87;25.90;102675.20;2114089;82;21054;-82
2022/03/19 13:33:18;;;;;;;23.85;13.48;;;;;;;8.89;26.67;102666.22;2109590;82;21013;-83
2022/03/19 13:36:19;;;;;;;27.42;13.62;;;;;;;9.00;26.80;102677.48;2109385;82;20993;-81
2022/03/19 13:39:27;;;;;;;22.37;14.33;;;;;;;9.03;26.64;102677.77;2111762;82;21069;-84
2022/03/19 13:42:35;;;;;;;29.48;16.15;;;;;;;8.95;27.42;102668.97;2114616;82;21032;-85
2022/03/19 13:45:37;;;;;;;29.70;15.75;;;;;;;8.93;26.75;102664.26;2111190;82;21102;-84
2022/03/19 13:48:39;;;;;;;27.70;16.02;;;;;;;8.87;26.50;102658.86;2105410;82;21768;-82
2022/03/19 13:51:44;;;;;;;28.60;13.70;;;;;;;8.74;27.12;102654.77;2110718;82;21057;-88
2022/03/19 13:54:47;;;;;;;28.73;13.80;;;;;;;8.79;26.82;102649.69;2111864;82;21072;-80
2022/03/19 13:57:58;;;;;;;24.72;14.75;;;;;;;8.85;27.00;102648.83;2113808;82;21065;-84
2022/03/19 14:01:12;;;;;;;;;;;;;;;8.80;26.91;102674.73;2116102;82;21041;-82
2022/03/19 14:04:20;;;;;;;27.58;13.88;;;;;;;8.67;26.70;102644.64;2110635;82;20157;-85
2022/03/19 14:07:32;;;;;;;21.70;12.98;;;;;;;8.62;27.00;102652.03;2106377;82;21003;-81
2022/03/19 14:10:43;;;;;;;19.10;11.12;;;;;;;8.61;27.12;102641.89;2131367;80;21058;-83
2022/03/19 14:13:45;;;;;;;;;;;;;;;8.60;26.07;102650.79;2143233;81;21439;-83
2022/03/19 14:17:01;;;;;;;30.37;16.55;;;;;;;8.62;26.79;102656.84;2142549;80;20164;-84